sensor_id;sensor_type;location;lat;lon;timestamp;P1;durP1;ratioP1;P2;durP2;ratioP2
67768;SDS011;54569;52.018;5.584;2024-02-28T00:01:20;51.38;;;16.60;;
67768;SDS011;54569;52.018;5.584;2024-02-28T00:03:46;63.90;;;17.83;;
67768;SDS011;54569;52.018;5.584;2024-02-28T00:06:12;61.40;;;18.42;;
67768;SDS011;54569;52.018;5.584;2024-02-28T00:08:38;70.97;;;18.63;;
67768;SDS011;54569;52.018;5.584;2024-02-28T00:11:03;64.55;;;19.13;;
67768;SDS011;54569;52.018;5.584;2024-02-28T00:13:29;59.10;;;18.42;;
67768;SDS011;54569;52.018;5.584;2024-02-28T00:15:55;55.67;;;18.58;;
67768;SDS011;54569;52.018;5.584;2024-02-28T00:18:21;70.03;;;19.27;;
67768;SDS011;54569;52.018;5.584;2024-02-28T00:20:47;57.55;;;18.73;;
67768;SDS011;54569;52.018;5.584;2024-02-28T00:23:12;43.65;;;17.85;;
67768;SDS011;54569;52.018;5.584;2024-02-28T00:25:38;80.13;;;19.42;;
67768;SDS011;54569;52.018;5.584;2024-02-28T00:28:04;91.82;;;20.88;;
67768;SDS011;54569;52.018;5.584;2024-02-28T00:30:30;50.15;;;18.45;;
67768;SDS011;54569;52.018;5.584;2024-02-28T00:32:57;72.47;;;19.73;;
67768;SDS011;54569;52.018;5.584;2024-02-28T00:35:22;44.50;;;20.55;;
67768;SDS011;54569;52.018;5.584;2024-02-28T00:37:48;97.45;;;20.55;;
67768;SDS011;54569;52.018;5.584;2024-02-28T00:40:14;58.05;;;20.42;;
67768;SDS011;54569;52.018;5.584;2024-02-28T00:42:39;99.35;;;21.98;;
67768;SDS011;54569;52.018;5.584;2024-02-28T00:45:07;77.75;;;20.77;;
67768;SDS011;54569;52.018;5.584;2024-02-28T00:47:34;106.95;;;20.90;;
67768;SDS011;54569;52.018;5.584;2024-02-28T00:50:00;80.80;;;20.73;;
67768;SDS011;54569;52.018;5.584;2024-02-28T00:52:28;88.03;;;20.02;;
67768;SDS011;54569;52.018;5.584;2024-02-28T00:54:54;157.27;;;21.75;;
67768;SDS011;54569;52.018;5.584;2024-02-28T00:57:20;132.00;;;23.77;;
67768;SDS011;54569;52.018;5.584;2024-02-28T00:59:46;65.65;;;20.67;;
67768;SDS011;54569;52.018;5.584;2024-02-28T01:02:11;148.55;;;21.75;;
67768;SDS011;54569;52.018;5.584;2024-02-28T01:04:39;141.90;;;21.35;;
67768;SDS011;54569;52.018;5.584;2024-02-28T01:07:06;159.20;;;22.23;;
67768;SDS011;54569;52.018;5.584;2024-02-28T01:09:32;152.55;;;21.25;;
67768;SDS011;54569;52.018;5.584;2024-02-28T01:11:57;140.57;;;22.88;;
67768;SDS011;54569;52.018;5.584;2024-02-28T01:14:23;166.15;;;23.17;;
67768;SDS011;54569;52.018;5.584;2024-02-28T01:16:49;100.97;;;24.45;;
67768;SDS011;54569;52.018;5.584;2024-02-28T01:19:15;166.38;;;23.60;;
67768;SDS011;54569;52.018;5.584;2024-02-28T01:21:41;191.07;;;23.02;;
67768;SDS011;54569;52.018;5.584;2024-02-28T01:24:07;211.88;;;25.67;;
67768;SDS011;54569;52.018;5.584;2024-02-28T01:26:33;163.25;;;22.42;;
67768;SDS011;54569;52.018;5.584;2024-02-28T01:28:59;88.93;;;21.80;;
67768;SDS011;54569;52.018;5.584;2024-02-28T01:31:24;102.78;;;21.17;;
67768;SDS011;54569;52.018;5.584;2024-02-28T01:33:50;203.80;;;23.05;;
67768;SDS011;54569;52.018;5.584;2024-02-28T01:36:16;127.53;;;24.13;;
67768;SDS011;54569;52.018;5.584;2024-02-28T01:38:41;120.07;;;21.90;;
67768;SDS011;54569;52.018;5.584;2024-02-28T01:41:07;150.43;;;22.83;;
67768;SDS011;54569;52.018;5.584;2024-02-28T01:43:33;152.27;;;21.52;;
67768;SDS011;54569;52.018;5.584;2024-02-28T01:46:03;153.57;;;21.00;;
67768;SDS011;54569;52.018;5.584;2024-02-28T01:48:38;110.47;;;19.90;;
67768;SDS011;54569;52.018;5.584;2024-02-28T01:51:03;152.70;;;20.45;;
67768;SDS011;54569;52.018;5.584;2024-02-28T01:53:30;116.53;;;20.60;;
67768;SDS011;54569;52.018;5.584;2024-02-28T01:55:56;200.10;;;21.67;;
67768;SDS011;54569;52.018;5.584;2024-02-28T01:58:22;211.02;;;23.00;;
67768;SDS011;54569;52.018;5.584;2024-02-28T02:00:48;174.27;;;19.83;;
67768;SDS011;54569;52.018;5.584;2024-02-28T02:03:15;143.68;;;21.08;;
67768;SDS011;54569;52.018;5.584;2024-02-28T02:05:41;162.35;;;22.58;;
67768;SDS011;54569;52.018;5.584;2024-02-28T02:08:07;169.45;;;20.10;;
67768;SDS011;54569;52.018;5.584;2024-02-28T02:10:34;176.45;;;25.60;;
67768;SDS011;54569;52.018;5.584;2024-02-28T02:13:05;161.73;;;21.23;;
67768;SDS011;54569;52.018;5.584;2024-02-28T02:15:32;145.93;;;18.52;;
67768;SDS011;54569;52.018;5.584;2024-02-28T02:17:57;141.02;;;18.63;;
67768;SDS011;54569;52.018;5.584;2024-02-28T02:20:23;165.40;;;19.92;;
67768;SDS011;54569;52.018;5.584;2024-02-28T02:22:54;199.35;;;19.17;;
67768;SDS011;54569;52.018;5.584;2024-02-28T02:25:20;135.15;;;20.35;;
67768;SDS011;54569;52.018;5.584;2024-02-28T02:27:46;167.82;;;18.83;;
67768;SDS011;54569;52.018;5.584;2024-02-28T02:30:12;150.98;;;19.45;;
67768;SDS011;54569;52.018;5.584;2024-02-28T02:32:38;135.00;;;20.42;;
67768;SDS011;54569;52.018;5.584;2024-02-28T02:35:04;143.77;;;18.00;;
67768;SDS011;54569;52.018;5.584;2024-02-28T02:37:30;127.30;;;18.40;;
67768;SDS011;54569;52.018;5.584;2024-02-28T02:39:56;143.52;;;19.10;;
67768;SDS011;54569;52.018;5.584;2024-02-28T02:42:22;110.75;;;18.60;;
67768;SDS011;54569;52.018;5.584;2024-02-28T02:44:47;134.60;;;18.85;;
67768;SDS011;54569;52.018;5.584;2024-02-28T02:47:13;130.32;;;17.90;;
67768;SDS011;54569;52.018;5.584;2024-02-28T02:49:39;91.28;;;17.42;;
67768;SDS011;54569;52.018;5.584;2024-02-28T02:52:05;122.30;;;17.60;;
67768;SDS011;54569;52.018;5.584;2024-02-28T02:54:31;102.13;;;16.20;;
67768;SDS011;54569;52.018;5.584;2024-02-28T02:56:57;84.18;;;16.10;;
67768;SDS011;54569;52.018;5.584;2024-02-28T02:59:22;82.95;;;15.88;;
67768;SDS011;54569;52.018;5.584;2024-02-28T03:01:49;59.10;;;15.38;;
67768;SDS011;54569;52.018;5.584;2024-02-28T03:04:15;66.07;;;14.95;;
67768;SDS011;54569;52.018;5.584;2024-02-28T03:06:41;84.90;;;15.93;;
67768;SDS011;54569;52.018;5.584;2024-02-28T03:09:07;70.82;;;15.23;;
67768;SDS011;54569;52.018;5.584;2024-02-28T03:11:33;81.80;;;15.27;;
67768;SDS011;54569;52.018;5.584;2024-02-28T03:14:00;77.57;;;16.00;;
67768;SDS011;54569;52.018;5.584;2024-02-28T03:16:26;109.80;;;17.17;;
67768;SDS011;54569;52.018;5.584;2024-02-28T03:18:52;121.78;;;16.85;;
67768;SDS011;54569;52.018;5.584;2024-02-28T03:21:18;80.38;;;15.85;;
67768;SDS011;54569;52.018;5.584;2024-02-28T03:23:45;110.80;;;16.55;;
67768;SDS011;54569;52.018;5.584;2024-02-28T03:26:11;100.95;;;16.55;;
67768;SDS011;54569;52.018;5.584;2024-02-28T03:28:37;93.68;;;15.70;;
67768;SDS011;54569;52.018;5.584;2024-02-28T03:31:03;82.50;;;15.68;;
67768;SDS011;54569;52.018;5.584;2024-02-28T03:33:28;89.10;;;17.10;;
67768;SDS011;54569;52.018;5.584;2024-02-28T03:35:56;105.90;;;16.42;;
67768;SDS011;54569;52.018;5.584;2024-02-28T03:38:22;84.25;;;15.18;;
67768;SDS011;54569;52.018;5.584;2024-02-28T03:40:48;77.80;;;18.13;;
67768;SDS011;54569;52.018;5.584;2024-02-28T03:43:13;111.35;;;16.25;;
67768;SDS011;54569;52.018;5.584;2024-02-28T03:45:39;72.93;;;14.50;;
67768;SDS011;54569;52.018;5.584;2024-02-28T03:48:06;73.75;;;16.00;;
67768;SDS011;54569;52.018;5.584;2024-02-28T03:50:32;106.72;;;18.08;;
67768;SDS011;54569;52.018;5.584;2024-02-28T03:52:57;92.05;;;14.98;;
67768;SDS011;54569;52.018;5.584;2024-02-28T03:55:23;82.53;;;17.05;;
67768;SDS011;54569;52.018;5.584;2024-02-28T03:57:49;91.95;;;15.98;;
67768;SDS011;54569;52.018;5.584;2024-02-28T04:00:16;98.25;;;15.43;;
67768;SDS011;54569;52.018;5.584;2024-02-28T04:02:42;84.75;;;15.40;;
67768;SDS011;54569;52.018;5.584;2024-02-28T04:05:08;66.75;;;14.48;;
67768;SDS011;54569;52.018;5.584;2024-02-28T04:07:34;52.65;;;14.27;;
67768;SDS011;54569;52.018;5.584;2024-02-28T04:10:00;73.45;;;14.38;;
67768;SDS011;54569;52.018;5.584;2024-02-28T04:12:26;72.65;;;14.30;;
67768;SDS011;54569;52.018;5.584;2024-02-28T04:14:52;60.72;;;13.55;;
67768;SDS011;54569;52.018;5.584;2024-02-28T04:17:18;53.83;;;14.80;;
67768;SDS011;54569;52.018;5.584;2024-02-28T04:19:43;78.35;;;14.70;;
67768;SDS011;54569;52.018;5.584;2024-02-28T04:22:09;37.72;;;12.57;;
67768;SDS011;54569;52.018;5.584;2024-02-28T04:24:35;71.13;;;14.27;;
67768;SDS011;54569;52.018;5.584;2024-02-28T04:27:01;72.50;;;15.10;;
67768;SDS011;54569;52.018;5.584;2024-02-28T04:29:29;43.85;;;14.40;;
67768;SDS011;54569;52.018;5.584;2024-02-28T04:31:55;61.85;;;14.75;;
67768;SDS011;54569;52.018;5.584;2024-02-28T04:34:21;70.30;;;16.23;;
67768;SDS011;54569;52.018;5.584;2024-02-28T04:36:47;53.92;;;15.98;;
67768;SDS011;54569;52.018;5.584;2024-02-28T04:39:12;56.55;;;14.88;;
67768;SDS011;54569;52.018;5.584;2024-02-28T04:41:38;35.08;;;14.25;;
67768;SDS011;54569;52.018;5.584;2024-02-28T04:44:04;43.88;;;14.68;;
67768;SDS011;54569;52.018;5.584;2024-02-28T04:46:30;28.90;;;14.13;;
67768;SDS011;54569;52.018;5.584;2024-02-28T04:48:55;22.05;;;14.07;;
67768;SDS011;54569;52.018;5.584;2024-02-28T04:51:21;23.42;;;14.18;;
67768;SDS011;54569;52.018;5.584;2024-02-28T04:53:47;23.42;;;13.38;;
67768;SDS011;54569;52.018;5.584;2024-02-28T04:56:12;26.05;;;13.85;;
67768;SDS011;54569;52.018;5.584;2024-02-28T04:58:38;24.25;;;13.85;;
67768;SDS011;54569;52.018;5.584;2024-02-28T05:01:04;24.60;;;12.73;;
67768;SDS011;54569;52.018;5.584;2024-02-28T05:03:30;19.90;;;13.52;;
67768;SDS011;54569;52.018;5.584;2024-02-28T05:05:55;25.00;;;13.25;;
67768;SDS011;54569;52.018;5.584;2024-02-28T05:08:21;21.52;;;13.07;;
67768;SDS011;54569;52.018;5.584;2024-02-28T05:10:47;26.80;;;14.25;;
67768;SDS011;54569;52.018;5.584;2024-02-28T05:13:15;24.55;;;14.18;;
67768;SDS011;54569;52.018;5.584;2024-02-28T05:15:41;26.88;;;13.88;;
67768;SDS011;54569;52.018;5.584;2024-02-28T05:18:06;24.30;;;14.48;;
67768;SDS011;54569;52.018;5.584;2024-02-28T05:20:32;24.35;;;14.57;;
67768;SDS011;54569;52.018;5.584;2024-02-28T05:22:58;20.70;;;13.50;;
67768;SDS011;54569;52.018;5.584;2024-02-28T05:25:24;21.85;;;13.73;;
67768;SDS011;54569;52.018;5.584;2024-02-28T05:27:49;21.63;;;13.82;;
67768;SDS011;54569;52.018;5.584;2024-02-28T05:30:15;20.60;;;13.77;;
67768;SDS011;54569;52.018;5.584;2024-02-28T05:32:41;19.30;;;13.55;;
67768;SDS011;54569;52.018;5.584;2024-02-28T05:35:07;21.33;;;14.20;;
67768;SDS011;54569;52.018;5.584;2024-02-28T05:37:32;22.25;;;13.55;;
67768;SDS011;54569;52.018;5.584;2024-02-28T05:39:59;23.95;;;14.35;;
67768;SDS011;54569;52.018;5.584;2024-02-28T05:42:25;23.45;;;15.23;;
67768;SDS011;54569;52.018;5.584;2024-02-28T05:44:51;21.92;;;14.85;;
67768;SDS011;54569;52.018;5.584;2024-02-28T05:47:16;24.92;;;16.10;;
67768;SDS011;54569;52.018;5.584;2024-02-28T05:49:43;20.35;;;14.43;;
67768;SDS011;54569;52.018;5.584;2024-02-28T05:52:09;20.58;;;14.82;;
67768;SDS011;54569;52.018;5.584;2024-02-28T05:54:35;22.50;;;14.75;;
67768;SDS011;54569;52.018;5.584;2024-02-28T05:57:01;21.33;;;15.25;;
67768;SDS011;54569;52.018;5.584;2024-02-28T05:59:27;24.95;;;15.43;;
67768;SDS011;54569;52.018;5.584;2024-02-28T06:01:53;26.67;;;16.15;;
67768;SDS011;54569;52.018;5.584;2024-02-28T06:04:19;22.65;;;14.88;;
67768;SDS011;54569;52.018;5.584;2024-02-28T06:06:48;21.60;;;15.82;;
67768;SDS011;54569;52.018;5.584;2024-02-28T06:09:15;25.77;;;15.45;;
67768;SDS011;54569;52.018;5.584;2024-02-28T06:11:41;20.38;;;14.27;;
67768;SDS011;54569;52.018;5.584;2024-02-28T06:14:07;24.63;;;16.38;;
67768;SDS011;54569;52.018;5.584;2024-02-28T06:16:34;23.77;;;15.20;;
67768;SDS011;54569;52.018;5.584;2024-02-28T06:19:00;22.95;;;16.13;;
67768;SDS011;54569;52.018;5.584;2024-02-28T06:21:25;21.58;;;15.60;;
67768;SDS011;54569;52.018;5.584;2024-02-28T06:23:51;22.73;;;15.00;;
67768;SDS011;54569;52.018;5.584;2024-02-28T06:26:17;25.40;;;15.25;;
67768;SDS011;54569;52.018;5.584;2024-02-28T06:28:43;24.30;;;16.33;;
67768;SDS011;54569;52.018;5.584;2024-02-28T06:31:14;22.70;;;15.85;;
67768;SDS011;54569;52.018;5.584;2024-02-28T06:33:41;25.30;;;16.20;;
67768;SDS011;54569;52.018;5.584;2024-02-28T06:36:07;21.52;;;14.95;;
67768;SDS011;54569;52.018;5.584;2024-02-28T06:38:33;25.10;;;15.68;;
67768;SDS011;54569;52.018;5.584;2024-02-28T06:41:01;20.90;;;14.73;;
67768;SDS011;54569;52.018;5.584;2024-02-28T06:43:33;24.85;;;15.20;;
67768;SDS011;54569;52.018;5.584;2024-02-28T06:46:00;23.70;;;16.88;;
67768;SDS011;54569;52.018;5.584;2024-02-28T06:48:27;28.92;;;15.63;;
67768;SDS011;54569;52.018;5.584;2024-02-28T06:50:53;24.60;;;16.55;;
67768;SDS011;54569;52.018;5.584;2024-02-28T06:53:19;22.50;;;16.60;;
67768;SDS011;54569;52.018;5.584;2024-02-28T06:55:44;27.20;;;16.50;;
67768;SDS011;54569;52.018;5.584;2024-02-28T06:58:13;22.38;;;16.20;;
67768;SDS011;54569;52.018;5.584;2024-02-28T07:00:39;24.38;;;16.77;;
67768;SDS011;54569;52.018;5.584;2024-02-28T07:03:05;26.50;;;17.48;;
67768;SDS011;54569;52.018;5.584;2024-02-28T07:05:31;27.50;;;17.90;;
67768;SDS011;54569;52.018;5.584;2024-02-28T07:07:56;23.60;;;17.17;;
67768;SDS011;54569;52.018;5.584;2024-02-28T07:10:22;23.40;;;18.00;;
67768;SDS011;54569;52.018;5.584;2024-02-28T07:12:48;23.40;;;17.42;;
67768;SDS011;54569;52.018;5.584;2024-02-28T07:15:14;22.65;;;18.10;;
67768;SDS011;54569;52.018;5.584;2024-02-28T07:17:40;26.30;;;18.60;;
67768;SDS011;54569;52.018;5.584;2024-02-28T07:20:06;26.02;;;17.60;;
67768;SDS011;54569;52.018;5.584;2024-02-28T07:22:32;23.55;;;16.80;;
67768;SDS011;54569;52.018;5.584;2024-02-28T07:24:57;22.75;;;17.63;;
67768;SDS011;54569;52.018;5.584;2024-02-28T07:27:23;24.98;;;18.92;;
67768;SDS011;54569;52.018;5.584;2024-02-28T07:29:49;22.45;;;17.52;;
67768;SDS011;54569;52.018;5.584;2024-02-28T07:32:15;24.58;;;18.02;;
67768;SDS011;54569;52.018;5.584;2024-02-28T07:34:41;26.13;;;18.30;;
67768;SDS011;54569;52.018;5.584;2024-02-28T07:37:07;24.75;;;17.35;;
67768;SDS011;54569;52.018;5.584;2024-02-28T07:39:33;26.77;;;18.30;;
67768;SDS011;54569;52.018;5.584;2024-02-28T07:41:59;24.90;;;18.05;;
67768;SDS011;54569;52.018;5.584;2024-02-28T07:44:25;28.40;;;18.50;;
67768;SDS011;54569;52.018;5.584;2024-02-28T07:46:51;27.83;;;18.48;;
67768;SDS011;54569;52.018;5.584;2024-02-28T07:49:16;24.33;;;19.80;;
67768;SDS011;54569;52.018;5.584;2024-02-28T07:51:42;25.08;;;18.08;;
67768;SDS011;54569;52.018;5.584;2024-02-28T07:54:08;24.52;;;17.77;;
67768;SDS011;54569;52.018;5.584;2024-02-28T07:56:34;25.63;;;18.45;;
67768;SDS011;54569;52.018;5.584;2024-02-28T07:58:59;26.98;;;19.60;;
67768;SDS011;54569;52.018;5.584;2024-02-28T08:01:25;26.60;;;18.38;;
67768;SDS011;54569;52.018;5.584;2024-02-28T08:03:51;24.90;;;17.98;;
67768;SDS011;54569;52.018;5.584;2024-02-28T08:06:17;23.60;;;18.27;;
67768;SDS011;54569;52.018;5.584;2024-02-28T08:08:46;24.00;;;17.73;;
67768;SDS011;54569;52.018;5.584;2024-02-28T08:11:12;28.08;;;19.02;;
67768;SDS011;54569;52.018;5.584;2024-02-28T08:13:38;25.35;;;18.88;;
67768;SDS011;54569;52.018;5.584;2024-02-28T08:16:04;30.83;;;19.05;;
67768;SDS011;54569;52.018;5.584;2024-02-28T08:18:30;22.98;;;18.45;;
67768;SDS011;54569;52.018;5.584;2024-02-28T08:20:55;26.48;;;17.83;;
67768;SDS011;54569;52.018;5.584;2024-02-28T08:23:23;26.92;;;18.50;;
67768;SDS011;54569;52.018;5.584;2024-02-28T08:25:49;25.23;;;17.73;;
67768;SDS011;54569;52.018;5.584;2024-02-28T08:28:14;26.25;;;18.35;;
67768;SDS011;54569;52.018;5.584;2024-02-28T08:30:40;25.45;;;18.10;;
67768;SDS011;54569;52.018;5.584;2024-02-28T08:33:06;24.52;;;18.35;;
67768;SDS011;54569;52.018;5.584;2024-02-28T08:35:34;27.60;;;19.70;;
67768;SDS011;54569;52.018;5.584;2024-02-28T08:37:59;33.00;;;19.35;;
67768;SDS011;54569;52.018;5.584;2024-02-28T08:40:25;27.27;;;18.70;;
67768;SDS011;54569;52.018;5.584;2024-02-28T08:42:51;27.77;;;18.63;;
67768;SDS011;54569;52.018;5.584;2024-02-28T08:45:19;24.08;;;19.05;;
67768;SDS011;54569;52.018;5.584;2024-02-28T08:47:45;27.35;;;17.88;;
67768;SDS011;54569;52.018;5.584;2024-02-28T08:50:11;27.67;;;19.20;;
67768;SDS011;54569;52.018;5.584;2024-02-28T08:52:37;28.45;;;18.10;;
67768;SDS011;54569;52.018;5.584;2024-02-28T08:55:03;25.08;;;17.90;;
67768;SDS011;54569;52.018;5.584;2024-02-28T08:57:29;26.75;;;18.90;;
67768;SDS011;54569;52.018;5.584;2024-02-28T08:59:55;25.67;;;18.48;;
67768;SDS011;54569;52.018;5.584;2024-02-28T09:02:21;26.95;;;18.58;;
67768;SDS011;54569;52.018;5.584;2024-02-28T09:04:47;28.70;;;18.90;;
67768;SDS011;54569;52.018;5.584;2024-02-28T09:07:17;24.80;;;18.42;;
67768;SDS011;54569;52.018;5.584;2024-02-28T09:09:45;26.63;;;19.00;;
67768;SDS011;54569;52.018;5.584;2024-02-28T09:12:11;30.70;;;20.38;;
67768;SDS011;54569;52.018;5.584;2024-02-28T09:14:37;30.00;;;19.85;;
67768;SDS011;54569;52.018;5.584;2024-02-28T09:17:03;33.00;;;20.48;;
67768;SDS011;54569;52.018;5.584;2024-02-28T09:19:30;31.50;;;19.13;;
67768;SDS011;54569;52.018;5.584;2024-02-28T09:21:56;31.50;;;21.73;;
67768;SDS011;54569;52.018;5.584;2024-02-28T09:24:23;34.75;;;20.38;;
67768;SDS011;54569;52.018;5.584;2024-02-28T09:26:49;30.55;;;20.70;;
67768;SDS011;54569;52.018;5.584;2024-02-28T09:29:15;38.42;;;21.90;;
67768;SDS011;54569;52.018;5.584;2024-02-28T09:31:41;32.38;;;21.45;;
67768;SDS011;54569;52.018;5.584;2024-02-28T09:34:06;34.05;;;21.38;;
67768;SDS011;54569;52.018;5.584;2024-02-28T09:36:41;31.73;;;21.13;;
67768;SDS011;54569;52.018;5.584;2024-02-28T09:39:08;32.80;;;22.10;;
67768;SDS011;54569;52.018;5.584;2024-02-28T09:41:34;33.15;;;21.95;;
67768;SDS011;54569;52.018;5.584;2024-02-28T09:44:00;33.28;;;21.75;;
67768;SDS011;54569;52.018;5.584;2024-02-28T09:46:28;34.28;;;21.63;;
67768;SDS011;54569;52.018;5.584;2024-02-28T09:48:55;35.35;;;23.23;;
67768;SDS011;54569;52.018;5.584;2024-02-28T09:51:21;38.13;;;22.00;;
67768;SDS011;54569;52.018;5.584;2024-02-28T09:53:49;34.67;;;23.23;;
67768;SDS011;54569;52.018;5.584;2024-02-28T09:56:16;35.22;;;22.27;;
67768;SDS011;54569;52.018;5.584;2024-02-28T09:58:42;38.83;;;23.00;;
67768;SDS011;54569;52.018;5.584;2024-02-28T10:01:08;34.75;;;22.08;;
67768;SDS011;54569;52.018;5.584;2024-02-28T10:03:36;39.55;;;23.65;;
67768;SDS011;54569;52.018;5.584;2024-02-28T10:06:03;36.42;;;23.60;;
67768;SDS011;54569;52.018;5.584;2024-02-28T10:08:29;34.25;;;22.38;;
67768;SDS011;54569;52.018;5.584;2024-02-28T10:10:55;35.35;;;22.60;;
67768;SDS011;54569;52.018;5.584;2024-02-28T10:13:22;39.40;;;23.27;;
67768;SDS011;54569;52.018;5.584;2024-02-28T10:15:49;38.38;;;22.98;;
67768;SDS011;54569;52.018;5.584;2024-02-28T10:18:14;35.35;;;22.50;;
67768;SDS011;54569;52.018;5.584;2024-02-28T10:20:40;34.97;;;22.55;;
67768;SDS011;54569;52.018;5.584;2024-02-28T10:23:06;37.47;;;23.85;;
67768;SDS011;54569;52.018;5.584;2024-02-28T10:25:41;33.83;;;23.02;;
67768;SDS011;54569;52.018;5.584;2024-02-28T10:28:11;37.22;;;23.65;;
67768;SDS011;54569;52.018;5.584;2024-02-28T10:30:42;35.35;;;22.05;;
67768;SDS011;54569;52.018;5.584;2024-02-28T10:33:15;33.40;;;22.33;;
67768;SDS011;54569;52.018;5.584;2024-02-28T10:35:41;31.85;;;21.50;;
67768;SDS011;54569;52.018;5.584;2024-02-28T10:38:16;35.38;;;22.40;;
67768;SDS011;54569;52.018;5.584;2024-02-28T10:40:42;30.90;;;22.80;;
67768;SDS011;54569;52.018;5.584;2024-02-28T10:43:09;34.22;;;21.65;;
67768;SDS011;54569;52.018;5.584;2024-02-28T10:45:35;36.65;;;23.40;;
67768;SDS011;54569;52.018;5.584;2024-02-28T10:48:05;33.08;;;22.25;;
67768;SDS011;54569;52.018;5.584;2024-02-28T10:50:32;32.63;;;23.27;;
67768;SDS011;54569;52.018;5.584;2024-02-28T10:53:04;36.20;;;22.73;;
67768;SDS011;54569;52.018;5.584;2024-02-28T10:55:42;36.25;;;23.15;;
67768;SDS011;54569;52.018;5.584;2024-02-28T10:58:12;34.08;;;22.20;;
67768;SDS011;54569;52.018;5.584;2024-02-28T11:00:40;32.20;;;21.40;;
67768;SDS011;54569;52.018;5.584;2024-02-28T11:03:09;31.52;;;21.45;;
67768;SDS011;54569;52.018;5.584;2024-02-28T11:05:39;29.35;;;20.95;;
67768;SDS011;54569;52.018;5.584;2024-02-28T11:08:09;30.40;;;20.48;;
67768;SDS011;54569;52.018;5.584;2024-02-28T11:10:36;28.23;;;19.45;;
67768;SDS011;54569;52.018;5.584;2024-02-28T11:13:06;27.85;;;19.65;;
67768;SDS011;54569;52.018;5.584;2024-02-28T11:15:33;27.42;;;18.95;;
67768;SDS011;54569;52.018;5.584;2024-02-28T11:18:06;29.80;;;19.58;;
67768;SDS011;54569;52.018;5.584;2024-02-28T11:20:34;29.75;;;19.55;;
67768;SDS011;54569;52.018;5.584;2024-02-28T11:23:00;26.55;;;19.38;;
67768;SDS011;54569;52.018;5.584;2024-02-28T11:25:26;27.67;;;19.30;;
67768;SDS011;54569;52.018;5.584;2024-02-28T11:27:52;25.30;;;18.10;;
67768;SDS011;54569;52.018;5.584;2024-02-28T11:30:19;29.65;;;19.15;;
67768;SDS011;54569;52.018;5.584;2024-02-28T11:32:45;26.58;;;18.17;;
67768;SDS011;54569;52.018;5.584;2024-02-28T11:35:10;25.80;;;19.23;;
67768;SDS011;54569;52.018;5.584;2024-02-28T11:37:39;27.25;;;18.83;;
67768;SDS011;54569;52.018;5.584;2024-02-28T11:40:08;26.80;;;19.20;;
67768;SDS011;54569;52.018;5.584;2024-02-28T11:42:35;31.20;;;20.40;;
67768;SDS011;54569;52.018;5.584;2024-02-28T11:45:01;26.23;;;19.30;;
67768;SDS011;54569;52.018;5.584;2024-02-28T11:47:31;24.92;;;19.00;;
67768;SDS011;54569;52.018;5.584;2024-02-28T11:50:01;24.90;;;18.92;;
67768;SDS011;54569;52.018;5.584;2024-02-28T11:52:30;26.90;;;18.63;;
67768;SDS011;54569;52.018;5.584;2024-02-28T11:54:56;28.00;;;19.58;;
67768;SDS011;54569;52.018;5.584;2024-02-28T11:57:21;28.70;;;19.13;;
67768;SDS011;54569;52.018;5.584;2024-02-28T11:59:47;30.95;;;20.52;;
67768;SDS011;54569;52.018;5.584;2024-02-28T12:02:14;30.95;;;21.42;;
67768;SDS011;54569;52.018;5.584;2024-02-28T12:04:41;31.10;;;21.48;;
67768;SDS011;54569;52.018;5.584;2024-02-28T12:07:08;29.42;;;20.75;;
67768;SDS011;54569;52.018;5.584;2024-02-28T12:09:34;32.40;;;19.85;;
67768;SDS011;54569;52.018;5.584;2024-02-28T12:12:00;32.95;;;19.77;;
67768;SDS011;54569;52.018;5.584;2024-02-28T12:14:27;30.50;;;20.00;;
67768;SDS011;54569;52.018;5.584;2024-02-28T12:16:53;31.25;;;21.48;;
67768;SDS011;54569;52.018;5.584;2024-02-28T12:19:18;32.20;;;19.38;;
67768;SDS011;54569;52.018;5.584;2024-02-28T12:21:45;31.30;;;20.60;;
67768;SDS011;54569;52.018;5.584;2024-02-28T12:24:12;33.42;;;19.80;;
67768;SDS011;54569;52.018;5.584;2024-02-28T12:26:38;35.13;;;20.90;;
67768;SDS011;54569;52.018;5.584;2024-02-28T12:29:04;30.92;;;20.33;;
67768;SDS011;54569;52.018;5.584;2024-02-28T12:31:30;32.67;;;20.77;;
67768;SDS011;54569;52.018;5.584;2024-02-28T12:33:56;28.42;;;20.23;;
67768;SDS011;54569;52.018;5.584;2024-02-28T12:36:22;31.25;;;21.73;;
67768;SDS011;54569;52.018;5.584;2024-02-28T12:38:48;33.08;;;21.42;;
67768;SDS011;54569;52.018;5.584;2024-02-28T12:41:14;29.52;;;20.70;;
67768;SDS011;54569;52.018;5.584;2024-02-28T12:43:43;31.60;;;21.02;;
67768;SDS011;54569;52.018;5.584;2024-02-28T12:46:08;31.15;;;21.27;;
67768;SDS011;54569;52.018;5.584;2024-02-28T12:48:38;34.95;;;21.15;;
67768;SDS011;54569;52.018;5.584;2024-02-28T12:51:05;31.95;;;21.67;;
67768;SDS011;54569;52.018;5.584;2024-02-28T12:53:31;32.88;;;20.95;;
67768;SDS011;54569;52.018;5.584;2024-02-28T12:55:57;31.60;;;22.13;;
67768;SDS011;54569;52.018;5.584;2024-02-28T12:58:23;33.85;;;21.95;;
67768;SDS011;54569;52.018;5.584;2024-02-28T13:00:49;33.80;;;21.10;;
67768;SDS011;54569;52.018;5.584;2024-02-28T13:03:15;29.40;;;20.73;;
67768;SDS011;54569;52.018;5.584;2024-02-28T13:05:42;30.27;;;20.05;;
67768;SDS011;54569;52.018;5.584;2024-02-28T13:08:08;28.17;;;19.98;;
67768;SDS011;54569;52.018;5.584;2024-02-28T13:10:34;27.27;;;18.45;;
67768;SDS011;54569;52.018;5.584;2024-02-28T13:13:04;26.10;;;18.25;;
67768;SDS011;54569;52.018;5.584;2024-02-28T13:15:31;26.55;;;17.90;;
67768;SDS011;54569;52.018;5.584;2024-02-28T13:17:57;25.23;;;16.73;;
67768;SDS011;54569;52.018;5.584;2024-02-28T13:20:23;22.50;;;16.27;;
67768;SDS011;54569;52.018;5.584;2024-02-28T13:22:49;25.15;;;15.90;;
67768;SDS011;54569;52.018;5.584;2024-02-28T13:25:16;21.13;;;15.13;;
67768;SDS011;54569;52.018;5.584;2024-02-28T13:27:44;23.52;;;16.92;;
67768;SDS011;54569;52.018;5.584;2024-02-28T13:30:11;20.48;;;16.25;;
67768;SDS011;54569;52.018;5.584;2024-02-28T13:32:37;20.40;;;15.60;;
67768;SDS011;54569;52.018;5.584;2024-02-28T13:35:03;22.85;;;15.93;;
67768;SDS011;54569;52.018;5.584;2024-02-28T13:37:29;22.80;;;15.80;;
67768;SDS011;54569;52.018;5.584;2024-02-28T13:39:56;21.13;;;14.85;;
67768;SDS011;54569;52.018;5.584;2024-02-28T13:42:22;21.15;;;14.15;;
67768;SDS011;54569;52.018;5.584;2024-02-28T13:44:49;24.08;;;15.68;;
67768;SDS011;54569;52.018;5.584;2024-02-28T13:47:15;20.05;;;14.35;;
67768;SDS011;54569;52.018;5.584;2024-02-28T13:49:41;17.50;;;13.52;;
67768;SDS011;54569;52.018;5.584;2024-02-28T13:52:07;21.65;;;14.48;;
67768;SDS011;54569;52.018;5.584;2024-02-28T13:54:33;19.63;;;13.63;;
67768;SDS011;54569;52.018;5.584;2024-02-28T13:57:00;20.15;;;14.00;;
67768;SDS011;54569;52.018;5.584;2024-02-28T13:59:26;17.63;;;12.77;;
67768;SDS011;54569;52.018;5.584;2024-02-28T14:01:52;17.35;;;12.50;;
67768;SDS011;54569;52.018;5.584;2024-02-28T14:04:18;18.90;;;12.38;;
67768;SDS011;54569;52.018;5.584;2024-02-28T14:06:44;18.67;;;13.30;;
67768;SDS011;54569;52.018;5.584;2024-02-28T14:09:11;16.13;;;12.35;;
67768;SDS011;54569;52.018;5.584;2024-02-28T14:11:37;16.80;;;12.35;;
67768;SDS011;54569;52.018;5.584;2024-02-28T14:14:02;17.70;;;12.65;;